createdAt,value
2022-11-24T00:18:25.399Z,9.10
2022-11-24T00:18:30.662Z,20.30
2022-11-24T01:34:42.448Z,28.00
2022-11-24T01:34:48.827Z,33.60
2022-11-24T01:35:48.465Z,30.50
2022-11-24T01:36:48.551Z,29.00
2022-11-24T01:37:48.454Z,32.00
2022-11-24T01:38:48.661Z,29.10
2022-11-24T02:04:00.495Z,23.60
2022-11-24T02:04:06.947Z,27.70
2022-11-24T02:05:06.748Z,29.50
2022-11-24T02:06:06.690Z,29.20
2022-11-24T02:07:06.553Z,29.70
2022-11-24T02:08:06.731Z,31.00
2022-11-24T02:09:06.513Z,32.20
2022-11-24T02:10:06.821Z,31.10
2022-11-24T02:11:06.611Z,28.20
2022-11-24T02:12:06.919Z,35.00
2022-11-24T03:26:18.797Z,24.60
2022-11-24T03:26:25.072Z,29.30
2022-11-24T04:37:37.072Z,31.50
2022-11-24T04:37:43.219Z,31.30
2022-11-24T04:39:24.144Z,28.60
2022-11-24T04:39:44.322Z,31.10
2022-11-24T04:40:43.202Z,36.60
2022-11-24T04:41:43.148Z,32.00
2022-11-24T04:42:43.401Z,29.30
2022-11-24T04:43:43.230Z,30.50
2022-11-24T04:44:43.181Z,28.70
2022-11-24T04:45:43.278Z,31.00
2022-11-24T04:46:43.340Z,34.20
2022-11-24T04:47:43.016Z,30.20
2022-11-24T04:48:43.925Z,29.00
2022-11-24T04:49:43.187Z,26.40
2022-11-24T04:50:43.101Z,28.40
2022-11-24T04:51:42.985Z,29.80
2022-11-24T04:52:43.780Z,29.70
2022-11-24T04:53:43.439Z,30.70
2022-11-24T04:54:43.093Z,29.40
2022-11-24T04:55:43.145Z,28.40
2022-11-24T04:56:42.938Z,37.70
2022-11-24T04:57:43.050Z,33.50
2022-11-24T04:58:43.262Z,33.40
2022-11-24T04:59:43.257Z,34.90
2022-11-24T05:00:43.222Z,34.40
2022-11-24T05:01:43.159Z,31.50
2022-11-24T05:51:56.161Z,31.20
2022-11-24T05:52:03.519Z,31.60
2022-11-24T05:53:02.602Z,39.50
2022-11-24T05:54:03.301Z,37.50
2022-11-24T05:55:01.508Z,32.80
2022-11-24T05:56:02.690Z,38.10
2022-11-24T05:57:01.840Z,34.40
2022-11-24T05:58:02.476Z,30.80
2022-11-24T05:59:09.489Z,38.50
2022-11-24T06:03:07.370Z,33.90
2022-11-24T06:04:06.703Z,37.60
2022-11-24T06:05:06.375Z,38.00
2022-11-24T06:06:06.571Z,36.00
2022-11-24T06:07:06.457Z,39.80
2022-11-24T06:08:06.392Z,36.60
2022-11-24T06:09:06.408Z,39.40
2022-11-24T06:10:06.320Z,37.40
2022-11-24T06:11:06.392Z,41.70
2022-11-24T06:13:21.155Z,38.80
2022-11-24T06:14:22.011Z,38.70
2022-11-24T06:15:22.012Z,35.90
2022-11-24T06:16:21.963Z,34.40
2022-11-24T06:17:21.952Z,33.30
2022-11-24T06:18:21.885Z,39.70
2022-11-24T06:19:21.840Z,40.80
2022-11-24T06:20:21.913Z,40.10
2022-11-24T06:21:21.890Z,38.30
2022-11-24T06:22:21.857Z,39.90
2022-11-24T06:23:21.813Z,37.80
2022-11-24T06:24:21.826Z,39.40
2022-11-24T06:25:21.769Z,37.70
2022-11-24T06:26:21.865Z,40.60
2022-11-24T06:27:21.777Z,34.80
2022-11-24T06:28:21.806Z,35.50
2022-11-24T06:29:21.786Z,36.50
2022-11-24T06:30:21.865Z,37.10
2022-11-24T06:31:21.809Z,37.60
2022-11-24T06:32:21.878Z,32.10
2022-11-24T06:33:21.735Z,36.10
2022-11-24T06:34:21.868Z,36.50
2022-11-24T06:35:21.687Z,35.20
2022-11-24T06:36:21.788Z,37.20
2022-11-24T06:37:21.712Z,40.60
2022-11-24T06:38:24.373Z,40.30
2022-11-24T06:39:21.607Z,37.90
2022-11-24T06:40:21.611Z,37.60
2022-11-24T06:41:21.871Z,32.20
2022-11-24T06:42:21.625Z,36.40
2022-11-24T06:43:21.620Z,39.90
2022-11-24T06:44:21.666Z,37.10
2022-11-24T06:45:21.568Z,35.70
2022-11-24T06:46:21.606Z,35.50
2022-11-24T06:47:21.559Z,39.30
2022-11-24T06:48:21.568Z,37.80
2022-11-24T06:49:21.731Z,33.90
2022-11-24T06:50:21.520Z,33.90
2022-11-24T06:51:21.532Z,36.40
2022-11-24T06:52:21.511Z,36.40
2022-11-24T06:53:21.500Z,38.80
2022-11-24T06:54:21.475Z,36.00
2022-11-24T06:55:21.448Z,36.10
2022-11-24T06:56:21.503Z,38.70
2022-11-24T06:57:21.426Z,32.90
2022-11-24T06:58:21.461Z,35.00
2022-11-24T06:59:21.369Z,41.80
2022-11-24T07:00:21.369Z,42.70
2022-11-24T07:01:21.502Z,34.10
2022-11-24T07:02:21.518Z,27.90
2022-11-24T07:03:21.431Z,33.40
2022-11-24T07:04:21.374Z,39.60
2022-11-24T07:05:21.310Z,31.60
2022-11-24T07:06:21.378Z,39.60
2022-11-24T07:07:21.366Z,36.10
2022-11-24T07:08:21.344Z,33.70
2022-11-24T07:09:21.242Z,39.20
2022-11-24T07:10:21.275Z,36.20
2022-11-24T07:11:21.295Z,34.90
2022-11-24T07:12:21.284Z,35.90
2022-11-24T07:13:21.258Z,35.40
2022-11-24T07:14:21.229Z,39.10
2022-11-24T07:15:21.207Z,41.20
2022-11-24T07:16:21.324Z,36.30
2022-11-24T07:17:21.198Z,32.00
2022-11-24T07:18:21.234Z,36.80
2022-11-24T07:19:24.911Z,36.90
2022-11-24T07:20:21.166Z,38.70
2022-11-24T07:21:21.157Z,38.60
2022-11-24T07:22:21.184Z,32.60
2022-11-24T07:23:21.123Z,34.80
2022-11-24T07:24:21.157Z,34.00
2022-11-24T07:25:21.087Z,35.70
2022-11-24T07:26:21.100Z,38.20
2022-11-24T07:27:21.096Z,34.00
2022-11-24T07:28:21.183Z,35.10
2022-11-24T07:29:21.116Z,38.60
2022-11-24T07:30:21.085Z,36.10
2022-11-24T07:31:21.094Z,34.40
2022-11-24T07:32:21.123Z,35.10
2022-11-24T07:33:21.034Z,31.60
2022-11-24T07:34:21.078Z,30.80
2022-11-24T07:35:21.064Z,28.90
2022-11-24T07:36:21.036Z,31.00
2022-11-24T07:37:20.977Z,29.60
2022-11-24T07:38:20.987Z,25.60
2022-11-24T07:39:21.023Z,33.70
2022-11-24T07:40:20.985Z,28.20
2022-11-24T07:41:21.014Z,28.40
2022-11-24T07:42:20.943Z,29.50
2022-11-24T07:43:20.903Z,29.60
2022-11-24T07:44:20.956Z,27.60
2022-11-24T07:45:20.920Z,29.60
2022-11-24T07:46:20.923Z,30.70
2022-11-24T07:47:20.895Z,28.30
2022-11-24T07:48:20.916Z,26.60
2022-11-24T07:49:20.848Z,29.40
2022-11-24T07:50:20.898Z,26.60
2022-11-24T07:51:20.981Z,27.00
2022-11-24T07:52:20.879Z,27.50
2022-11-24T07:53:20.880Z,28.50
2022-11-24T07:54:20.809Z,24.20
2022-11-24T07:55:20.819Z,27.30
2022-11-24T07:56:20.812Z,29.00
2022-11-24T07:57:20.820Z,25.30
2022-11-24T07:58:20.779Z,27.70
2022-11-24T07:59:20.751Z,26.80
2022-11-24T08:00:20.768Z,27.20
2022-11-24T08:01:20.830Z,24.50
2022-11-24T08:02:20.747Z,22.10
2022-11-24T08:03:20.754Z,19.80
2022-11-24T08:04:20.698Z,24.90
2022-11-24T08:05:20.705Z,26.00
2022-11-24T08:06:27.281Z,24.80
2022-11-24T08:07:20.760Z,25.50
2022-11-24T08:08:20.667Z,26.00
2022-11-24T08:09:20.634Z,27.70
2022-11-24T08:10:21.413Z,25.30
2022-11-24T08:11:20.999Z,22.10
2022-11-24T08:12:20.681Z,23.30
2022-11-24T08:13:21.721Z,25.60
2022-11-24T08:14:21.216Z,22.50
2022-11-24T08:15:21.315Z,24.90
2022-11-24T08:16:21.500Z,24.90
2022-11-24T08:17:20.596Z,18.50
2022-11-24T08:18:20.578Z,21.90
2022-11-24T08:19:20.534Z,21.90
2022-11-24T08:20:20.624Z,21.70
2022-11-24T08:21:20.549Z,23.00
2022-11-24T08:22:20.548Z,20.80
2022-11-24T08:23:20.516Z,18.20
2022-11-24T08:24:20.486Z,17.40
2022-11-24T08:25:20.514Z,19.50
2022-11-24T08:26:20.506Z,15.70
2022-11-24T08:27:20.614Z,17.20
2022-11-24T08:28:20.526Z,24.00
2022-11-24T08:29:20.441Z,22.10
2022-11-24T08:30:20.485Z,21.20
2022-11-24T08:31:20.473Z,18.40
2022-11-24T08:32:22.467Z,17.70
2022-11-24T08:33:20.499Z,19.30
2022-11-24T08:34:20.399Z,19.10
2022-11-24T08:35:20.358Z,19.40
2022-11-24T08:36:20.416Z,18.60
2022-11-24T08:37:20.400Z,18.10
2022-11-24T08:38:20.376Z,15.60
2022-11-24T08:39:20.371Z,16.50
2022-11-24T08:40:20.501Z,17.10
2022-11-24T08:41:20.375Z,15.90
2022-11-24T08:42:20.313Z,17.00
2022-11-24T08:43:20.386Z,18.80
2022-11-24T08:44:20.348Z,20.40
2022-11-24T08:45:21.622Z,16.70
2022-11-24T08:46:20.392Z,16.80
2022-11-24T08:47:20.279Z,20.40
2022-11-24T08:48:20.270Z,16.60
2022-11-24T08:49:20.295Z,20.20
2022-11-24T08:50:20.291Z,17.40
2022-11-24T08:51:20.327Z,15.30
2022-11-24T08:52:20.279Z,19.10
2022-11-24T08:53:20.227Z,14.20
2022-11-24T08:54:20.220Z,16.00
2022-11-24T08:55:20.225Z,16.00
2022-11-24T08:56:20.254Z,13.00
2022-11-24T08:57:21.950Z,14.60
2022-11-24T08:58:20.217Z,16.40
2022-11-24T08:59:20.296Z,20.10
2022-11-24T09:00:20.211Z,14.20
2022-11-24T09:01:20.311Z,11.60
2022-11-24T09:02:20.109Z,16.20
2022-11-24T09:03:20.111Z,15.80
2022-11-24T09:04:20.161Z,13.70
2022-11-24T09:05:50.184Z,14.60
2022-11-24T09:06:20.235Z,14.00
2022-11-24T09:07:20.126Z,18.90
2022-11-24T09:08:20.048Z,19.10
2022-11-24T09:09:20.165Z,20.20
2022-11-24T09:10:20.187Z,15.50
2022-11-24T09:11:20.117Z,16.50
2022-11-24T09:12:20.037Z,16.50
2022-11-24T09:13:20.110Z,15.50
2022-11-24T09:14:19.971Z,17.30
2022-11-24T09:15:20.091Z,18.80
2022-11-24T09:16:20.089Z,15.80
2022-11-24T09:17:19.993Z,12.90
2022-11-24T09:18:19.944Z,12.90
2022-11-24T09:19:19.955Z,14.20
2022-11-24T09:20:19.933Z,16.20
2022-11-24T09:21:20.049Z,14.50
2022-11-24T09:22:20.144Z,14.40
2022-11-24T09:23:19.972Z,12.50
2022-11-24T09:24:19.982Z,17.40
2022-11-24T09:25:19.928Z,13.90
2022-11-24T09:26:19.941Z,14.30
2022-11-24T09:27:19.871Z,13.10
2022-11-24T09:28:19.904Z,13.30
2022-11-24T09:29:19.958Z,18.40
2022-11-24T09:30:20.051Z,17.70
2022-11-24T09:31:20.016Z,14.50
2022-11-24T09:32:19.865Z,12.60
2022-11-24T09:33:19.977Z,10.40
2022-11-24T09:34:19.868Z,13.90
2022-11-24T09:35:20.065Z,13.60
2022-11-24T09:36:19.837Z,13.20
2022-11-24T09:37:19.786Z,15.10
2022-11-24T09:38:19.760Z,11.30
2022-11-24T09:39:19.784Z,13.70
2022-11-24T09:40:19.720Z,14.20
2022-11-24T09:41:19.836Z,12.70
2022-11-24T09:42:19.720Z,11.50
2022-11-24T09:43:19.717Z,11.80
2022-11-24T09:44:19.732Z,12.80
2022-11-24T09:45:35.423Z,12.60
2022-11-24T09:46:19.734Z,13.00
2022-11-24T09:47:19.638Z,12.30
2022-11-24T09:48:19.605Z,12.50
2022-11-24T09:49:19.666Z,12.30
2022-11-24T09:50:19.722Z,15.40
2022-11-24T09:51:19.634Z,13.60
2022-11-24T09:52:19.713Z,11.10
2022-11-24T09:53:19.881Z,13.00
2022-11-24T09:54:19.563Z,13.10
2022-11-24T09:55:19.560Z,13.50
2022-11-24T09:56:19.577Z,14.40
2022-11-24T09:57:19.529Z,13.50
2022-11-24T09:58:19.571Z,18.60
2022-11-24T09:59:19.512Z,12.50
2022-11-24T10:00:19.754Z,22.20
2022-11-24T10:01:19.634Z,26.20
2022-11-24T10:02:19.513Z,19.60
2022-11-24T10:03:19.503Z,26.70
2022-11-24T10:04:19.561Z,13.60
2022-11-24T10:05:19.517Z,12.10
2022-11-24T10:06:19.451Z,14.50
2022-11-24T10:07:19.532Z,13.50
2022-11-24T10:08:19.470Z,13.00
2022-11-24T10:09:19.526Z,13.00
2022-11-24T10:10:24.443Z,14.80
2022-11-24T10:11:19.467Z,12.90
2022-11-24T10:12:19.483Z,15.20
2022-11-24T10:13:19.385Z,12.80
2022-11-24T10:14:19.393Z,13.60
2022-11-24T10:15:19.459Z,11.70
2022-11-24T10:16:19.378Z,13.20
2022-11-24T10:17:19.390Z,13.60
2022-11-24T10:18:19.356Z,11.50
2022-11-24T10:19:19.339Z,12.10
2022-11-24T10:20:19.299Z,11.40
2022-11-24T10:21:19.349Z,12.00
2022-11-24T10:22:19.321Z,12.50
2022-11-24T10:23:19.300Z,12.10
2022-11-24T10:24:19.331Z,9.90
2022-11-24T10:25:19.298Z,10.70
2022-11-24T10:26:19.300Z,11.10
2022-11-24T10:27:19.235Z,11.40
2022-11-24T10:28:19.237Z,10.80
2022-11-24T10:29:19.218Z,14.60
2022-11-24T10:30:19.179Z,11.40
2022-11-24T10:31:19.346Z,11.90
2022-11-24T10:32:19.277Z,11.90
2022-11-24T10:33:19.274Z,12.00
2022-11-24T10:34:19.159Z,13.40
2022-11-24T10:35:19.384Z,13.30
2022-11-24T10:36:19.189Z,11.70
2022-11-24T10:37:19.141Z,11.00
2022-11-24T10:38:19.127Z,11.60
2022-11-24T10:39:19.163Z,11.90
2022-11-24T10:40:48.737Z,14.90
2022-11-24T10:41:19.096Z,11.90
2022-11-24T10:42:19.091Z,11.00
2022-11-24T10:43:19.155Z,13.60
2022-11-24T10:44:19.113Z,9.80
2022-11-24T10:45:19.082Z,11.90
2022-11-24T10:46:19.208Z,14.30
2022-11-24T10:47:19.023Z,9.50
2022-11-24T10:48:19.054Z,14.30
2022-11-24T10:49:19.063Z,13.70
2022-11-24T10:50:19.020Z,13.00
2022-11-24T10:51:19.000Z,13.20
2022-11-24T10:52:18.972Z,15.90
2022-11-24T10:53:18.985Z,12.30
2022-11-24T10:54:19.106Z,12.30
2022-11-24T10:55:21.534Z,13.70
2022-11-24T10:56:18.948Z,14.20
2022-11-24T10:57:18.959Z,14.30
2022-11-24T10:58:18.945Z,11.80
2022-11-24T10:59:18.977Z,13.00
2022-11-24T11:00:18.907Z,15.10
2022-11-24T11:01:18.897Z,12.30
2022-11-24T11:02:18.914Z,13.40
2022-11-24T11:03:18.882Z,13.30
2022-11-24T11:04:18.853Z,13.50
2022-11-24T11:05:18.868Z,11.00
2022-11-24T11:06:18.853Z,13.00
2022-11-24T11:07:18.912Z,14.30
2022-11-24T11:08:18.848Z,14.30
2022-11-24T11:09:18.815Z,14.10
2022-11-24T11:10:18.889Z,13.30
2022-11-24T11:11:18.809Z,10.90
2022-11-24T11:12:42.636Z,14.20
2022-11-24T11:13:18.832Z,14.90
2022-11-24T11:14:18.766Z,14.30
2022-11-24T11:15:18.795Z,11.60
2022-11-24T11:16:18.822Z,15.20
2022-11-24T11:17:18.772Z,14.90
2022-11-24T11:18:18.725Z,13.60
2022-11-24T11:19:47.454Z,15.70
2022-11-24T11:20:18.773Z,18.70
2022-11-24T11:21:18.682Z,14.30
2022-11-24T11:22:18.657Z,12.80
2022-11-24T11:23:18.667Z,14.30
2022-11-24T11:24:18.661Z,15.60
2022-11-24T11:25:18.664Z,14.80
2022-11-24T11:26:18.687Z,15.00
2022-11-24T11:27:18.692Z,13.10
2022-11-24T11:28:18.968Z,12.00
2022-11-24T11:31:21.113Z,17.30
2022-11-24T11:34:26.717Z,15.30
2022-11-24T11:35:18.554Z,15.20
2022-11-24T11:36:18.603Z,16.50
2022-11-24T11:37:18.531Z,14.30
2022-11-24T11:38:18.603Z,15.50
2022-11-24T11:39:18.515Z,12.60
2022-11-24T11:40:18.521Z,13.70
2022-11-24T11:41:18.534Z,14.80
2022-11-24T11:42:45.139Z,15.30
2022-11-24T11:43:18.474Z,13.50
2022-11-24T11:44:18.534Z,17.00
2022-11-24T11:45:18.603Z,17.20
2022-11-24T11:46:18.655Z,17.00
2022-11-24T11:47:18.430Z,16.80
2022-11-24T11:48:18.430Z,15.20
2022-11-24T11:49:18.430Z,16.10
2022-11-24T11:50:18.452Z,20.80
2022-11-24T11:51:25.602Z,16.30
2022-11-24T11:52:18.371Z,15.00
2022-11-24T11:53:18.401Z,14.10
2022-11-24T11:54:18.386Z,16.00
2022-11-24T11:55:18.327Z,16.50
2022-11-24T11:56:18.328Z,19.60
2022-11-24T11:57:18.359Z,18.60
2022-11-24T11:58:18.307Z,18.90
2022-11-24T11:59:18.310Z,15.00
2022-11-24T12:00:18.308Z,16.50
2022-11-24T12:01:18.290Z,16.60
2022-11-24T12:02:18.372Z,17.00
2022-11-24T12:03:18.450Z,18.70
2022-11-24T12:04:18.301Z,19.30
2022-11-24T12:05:18.308Z,17.50
2022-11-24T12:06:18.228Z,15.60
2022-11-24T12:07:18.278Z,15.50
2022-11-24T12:08:21.245Z,20.80
2022-11-24T12:09:21.056Z,19.70
2022-11-24T12:10:18.165Z,17.90
2022-11-24T12:11:18.207Z,17.10
2022-11-24T12:12:18.219Z,18.40
2022-11-24T12:13:18.152Z,16.40
2022-11-24T12:14:18.216Z,19.30
2022-11-24T12:15:18.154Z,16.70
2022-11-24T12:16:18.221Z,22.70
2022-11-24T12:17:18.155Z,20.00
2022-11-24T12:18:48.409Z,19.90
2022-11-24T12:19:18.128Z,21.00
2022-11-24T12:20:18.087Z,22.10
2022-11-24T12:21:24.690Z,15.50
2022-11-24T12:22:18.070Z,21.80
2022-11-24T12:23:18.067Z,20.60
2022-11-24T12:24:18.135Z,21.00
2022-11-24T12:25:18.063Z,19.60
2022-11-24T12:26:18.031Z,21.40
2022-11-24T12:27:22.825Z,17.70
2022-11-24T12:28:18.035Z,18.70
2022-11-24T12:29:17.970Z,24.90
2022-11-24T12:30:18.041Z,16.10
2022-11-24T12:31:18.104Z,18.90
2022-11-24T12:32:18.075Z,16.10
2022-11-24T12:33:18.926Z,18.90
2022-11-24T12:34:17.945Z,16.30
2022-11-24T12:35:18.049Z,18.00
2022-11-24T12:36:17.929Z,21.30
2022-11-24T12:37:17.920Z,19.90
2022-11-24T12:38:17.884Z,18.20
2022-11-24T12:39:17.913Z,17.80
2022-11-24T12:40:17.950Z,21.30
2022-11-24T12:41:40.365Z,21.90
2022-11-24T12:42:17.888Z,18.70
2022-11-24T12:43:17.850Z,21.50
2022-11-24T12:44:17.865Z,19.80
2022-11-24T12:45:17.830Z,19.30
2022-11-24T12:46:17.952Z,20.70
2022-11-24T12:47:17.821Z,22.80
2022-11-24T12:48:17.832Z,20.00
2022-11-24T12:49:17.828Z,24.90
2022-11-24T12:50:17.765Z,21.40
2022-11-24T12:51:17.765Z,29.20
2022-11-24T12:52:17.792Z,21.10
2022-11-24T12:53:17.769Z,18.80
2022-11-24T12:54:17.828Z,20.60
2022-11-24T12:55:17.781Z,21.20
2022-11-24T12:56:17.772Z,20.60
2022-11-24T12:57:17.683Z,19.30
2022-11-24T12:58:17.714Z,22.80
2022-11-24T12:59:17.675Z,21.20
2022-11-24T13:00:17.709Z,18.90
2022-11-24T13:01:17.843Z,21.00
2022-11-24T13:02:17.864Z,17.90
2022-11-24T13:03:17.764Z,28.30
2022-11-24T13:04:17.623Z,37.50
2022-11-24T13:05:17.605Z,31.80
2022-11-24T13:06:17.623Z,19.60
2022-11-24T13:07:17.746Z,24.60
2022-11-24T13:08:17.617Z,20.30
2022-11-24T13:09:17.615Z,18.50
2022-11-24T13:10:17.565Z,17.40
2022-11-24T13:11:17.592Z,22.50
2022-11-24T13:12:17.583Z,21.50
2022-11-24T13:13:17.632Z,23.50
2022-11-24T13:14:17.576Z,19.80
2022-11-24T13:15:43.570Z,18.70
2022-11-24T13:16:35.787Z,19.20
2022-11-24T13:18:17.559Z,21.70
2022-11-24T13:19:17.536Z,17.60
2022-11-24T13:20:17.478Z,19.80
2022-11-24T13:21:17.527Z,19.10
2022-11-24T13:22:17.483Z,25.50
2022-11-24T13:23:17.457Z,16.10
2022-11-24T13:24:18.661Z,22.00
2022-11-24T13:25:17.463Z,20.10
2022-11-24T13:26:17.484Z,22.40
2022-11-24T13:27:17.521Z,17.40
2022-11-24T13:28:20.405Z,24.90
2022-11-24T13:29:24.975Z,24.30
2022-11-24T13:30:17.351Z,21.60
2022-11-24T13:31:17.402Z,20.50
2022-11-24T13:32:17.382Z,23.90
2022-11-24T13:33:18.157Z,22.00
2022-11-24T13:34:17.348Z,19.90
2022-11-24T13:35:17.320Z,18.60
2022-11-24T13:36:17.325Z,19.30
2022-11-24T13:37:31.834Z,18.60
2022-11-24T13:38:17.326Z,20.70
2022-11-24T13:39:17.280Z,21.50
2022-11-24T13:40:17.255Z,19.20
2022-11-24T13:41:28.603Z,20.80
2022-11-24T13:42:42.313Z,21.40
2022-11-24T13:43:17.313Z,22.70
2022-11-24T13:44:17.264Z,27.50
2022-11-24T13:45:17.250Z,22.80
2022-11-24T13:46:17.229Z,24.20
2022-11-24T13:47:17.202Z,22.70
2022-11-24T13:48:17.210Z,23.40
2022-11-24T13:49:17.227Z,23.00
2022-11-24T13:50:17.191Z,21.30
2022-11-24T13:51:17.189Z,18.50
2022-11-24T13:52:17.224Z,24.40
2022-11-24T13:53:17.153Z,23.30
2022-11-24T13:54:17.189Z,17.10
2022-11-24T13:55:17.105Z,23.80
2022-11-24T13:56:17.088Z,28.90
2022-11-24T13:57:17.143Z,21.00
2022-11-24T13:58:17.088Z,25.10
2022-11-24T13:59:17.096Z,24.20
2022-11-24T14:00:17.098Z,18.40
2022-11-24T14:01:17.101Z,21.80
2022-11-24T14:02:17.117Z,26.90
2022-11-24T14:03:17.137Z,26.20
2022-11-24T14:13:15.012Z,26.40
2022-11-24T14:13:19.959Z,22.90
2022-11-24T14:14:20.805Z,21.90
2022-11-24T14:15:19.950Z,30.10
2022-11-24T14:16:19.999Z,23.90
2022-11-24T14:17:19.907Z,24.20
2022-11-24T14:18:19.909Z,24.40
2022-11-24T14:19:19.953Z,21.20
2022-11-24T14:20:19.905Z,21.90
2022-11-24T14:21:19.880Z,23.60
2022-11-24T14:22:19.837Z,20.40
2022-11-24T14:23:19.892Z,22.40
2022-11-24T14:24:19.838Z,25.30
2022-11-24T14:25:19.903Z,26.70
2022-11-24T14:26:19.817Z,23.30
2022-11-24T14:27:19.848Z,27.30
2022-11-24T14:28:19.852Z,23.50
2022-11-24T14:29:19.809Z,25.00
2022-11-24T14:30:19.786Z,24.20
2022-11-24T14:31:19.869Z,25.60
2022-11-24T14:32:19.746Z,26.10
2022-11-24T14:33:19.822Z,27.60
2022-11-24T14:34:19.733Z,32.30
2022-11-24T14:35:19.888Z,27.10
2022-11-24T14:36:19.732Z,24.30
2022-11-24T14:37:19.722Z,29.00
2022-11-24T14:38:19.695Z,26.10
2022-11-24T14:39:19.694Z,26.00
2022-11-24T14:40:19.684Z,25.60
2022-11-24T14:41:19.699Z,23.00
2022-11-24T14:42:19.642Z,24.40
2022-11-24T14:43:19.674Z,25.30
2022-11-24T14:44:19.649Z,22.50
2022-11-24T14:45:19.626Z,26.20
2022-11-24T14:46:19.697Z,28.40
2022-11-24T14:47:19.644Z,25.50
2022-11-24T14:48:19.596Z,25.20
2022-11-24T14:49:19.621Z,36.40
2022-11-24T14:50:19.608Z,26.00
2022-11-24T14:51:19.641Z,31.00
2022-11-24T14:52:19.569Z,24.20
2022-11-24T14:53:23.264Z,24.40
2022-11-24T14:54:19.518Z,28.40
2022-11-24T14:55:23.113Z,23.60
2022-11-24T14:56:19.532Z,23.20
2022-11-24T14:57:19.528Z,23.60
2022-11-24T14:58:19.484Z,31.90
2022-11-24T14:59:19.482Z,24.50
2022-11-24T15:00:19.479Z,26.40
2022-11-24T15:01:19.689Z,26.00
2022-11-24T15:02:19.506Z,29.30
2022-11-24T15:03:19.437Z,27.30
2022-11-24T15:05:19.432Z,28.60
2022-11-24T15:06:19.435Z,28.00
2022-11-24T15:07:19.554Z,26.10
2022-11-24T15:08:19.378Z,23.70
2022-11-24T15:09:19.421Z,25.70
2022-11-24T15:10:19.423Z,29.80
2022-11-24T15:11:19.361Z,23.50
2022-11-24T15:12:19.340Z,26.20
2022-11-24T15:13:19.374Z,24.10
2022-11-24T15:14:19.339Z,24.70
2022-11-24T15:15:19.354Z,23.90
2022-11-24T15:16:19.362Z,26.60
2022-11-24T15:17:19.284Z,23.30
2022-11-24T15:18:19.263Z,26.80
2022-11-24T15:19:19.306Z,18.90
2022-11-24T15:20:19.247Z,22.10
2022-11-24T15:21:19.818Z,26.00
2022-11-24T15:22:19.231Z,27.90
2022-11-24T15:23:19.219Z,29.70
2022-11-24T15:24:19.242Z,32.30
2022-11-24T15:25:19.221Z,30.20
2022-11-24T15:26:19.232Z,29.50
2022-11-24T15:27:19.196Z,28.20
2022-11-24T15:28:19.150Z,22.10
2022-11-24T15:29:19.206Z,33.10
2022-11-24T15:30:19.162Z,28.80
2022-11-24T15:31:19.221Z,18.80
2022-11-24T15:32:19.170Z,13.80
2022-11-24T15:33:19.127Z,21.90
2022-11-24T15:34:19.121Z,24.30
2022-11-24T15:35:19.095Z,16.90
2022-11-24T15:36:19.095Z,14.90
2022-11-24T15:37:19.087Z,19.50
2022-11-24T15:38:19.059Z,17.80
2022-11-24T15:39:19.064Z,21.90
2022-11-24T15:40:19.029Z,26.80
2022-11-24T15:41:19.084Z,18.70
2022-11-24T15:42:19.016Z,14.50
2022-11-24T15:43:19.008Z,12.80
2022-11-24T15:44:18.995Z,16.20
2022-11-24T15:45:19.069Z,18.60
2022-11-24T15:46:19.106Z,15.20
2022-11-24T15:47:18.987Z,25.00
2022-11-24T15:48:18.973Z,19.60
2022-11-24T15:49:18.966Z,17.50
2022-11-24T15:50:18.942Z,17.10
2022-11-24T15:51:18.940Z,18.70
2022-11-24T15:52:18.956Z,14.70
2022-11-24T15:53:18.919Z,11.50
2022-11-24T15:54:18.978Z,20.80
2022-11-24T15:55:18.924Z,15.30
2022-11-24T15:56:18.880Z,17.90
2022-11-24T15:57:18.875Z,15.80
2022-11-24T15:58:18.909Z,19.00
2022-11-24T15:59:21.217Z,16.20
2022-11-24T16:00:18.872Z,16.00
2022-11-24T16:01:18.897Z,18.00
2022-11-24T16:02:18.978Z,13.80
2022-11-24T16:03:45.857Z,18.90
2022-11-24T16:04:18.843Z,11.90
2022-11-24T16:05:18.844Z,15.10
2022-11-24T16:06:24.297Z,16.00
2022-11-24T16:07:18.875Z,19.10
2022-11-24T16:08:18.793Z,17.40
2022-11-24T16:09:18.838Z,20.00
2022-11-24T16:10:18.809Z,22.40
2022-11-24T16:11:18.797Z,27.70
2022-11-24T16:12:18.806Z,23.60
2022-11-24T16:13:18.771Z,24.20
2022-11-24T16:14:18.873Z,19.60
2022-11-24T16:15:18.764Z,16.90
2022-11-24T16:16:18.819Z,24.20
2022-11-24T16:17:18.733Z,21.20
2022-11-24T16:18:18.712Z,18.90
2022-11-24T16:19:18.699Z,13.80
2022-11-24T16:20:18.687Z,14.30
2022-11-24T16:21:18.686Z,19.30
2022-11-24T16:22:18.684Z,21.20
2022-11-24T16:23:18.683Z,18.60
2022-11-24T16:24:18.668Z,15.20
2022-11-24T16:25:18.649Z,14.30
2022-11-24T16:26:18.681Z,22.80
2022-11-24T16:27:18.603Z,17.70
2022-11-24T16:28:18.894Z,12.10
2022-11-24T16:29:18.614Z,15.70
2022-11-24T16:30:18.614Z,10.50
2022-11-24T16:31:18.624Z,14.20
2022-11-24T16:32:18.565Z,28.80
2022-11-24T16:33:18.583Z,34.80
2022-11-24T16:34:18.583Z,26.00
2022-11-24T16:35:18.550Z,29.60
2022-11-24T16:36:18.533Z,26.80
2022-11-24T16:37:18.562Z,29.30
2022-11-24T16:38:18.543Z,15.60
2022-11-24T16:39:18.528Z,14.90
2022-11-24T16:40:18.517Z,10.50
2022-11-24T16:41:18.493Z,17.50
2022-11-24T16:42:18.459Z,20.70
2022-11-24T16:43:18.475Z,16.70
2022-11-24T16:44:18.519Z,16.40
2022-11-24T16:45:18.475Z,13.60
2022-11-24T16:46:18.532Z,10.90
2022-11-24T16:47:18.442Z,14.60
2022-11-24T16:48:18.416Z,11.90
2022-11-24T16:49:18.395Z,14.10
2022-11-24T16:50:18.401Z,16.80
2022-11-24T16:51:18.413Z,20.60
2022-11-24T16:52:18.389Z,14.80
2022-11-24T16:53:18.403Z,18.90
2022-11-24T16:54:18.396Z,21.40
2022-11-24T16:55:18.441Z,9.90
2022-11-24T16:56:18.396Z,13.30
2022-11-24T16:57:18.335Z,12.10
2022-11-24T16:58:18.330Z,29.90
2022-11-24T16:59:18.311Z,15.80
2022-11-24T17:00:18.332Z,9.50
2022-11-24T17:01:18.411Z,13.50
2022-11-24T17:02:18.346Z,16.40
2022-11-24T17:03:18.255Z,27.70
2022-11-24T17:04:18.277Z,11.70
2022-11-24T17:05:18.282Z,24.00
2022-11-24T17:06:18.256Z,14.20
2022-11-24T17:07:18.298Z,11.90
2022-11-24T17:08:18.289Z,11.80
2022-11-24T17:09:18.192Z,10.70
2022-11-24T17:10:18.262Z,15.80
2022-11-24T17:11:18.187Z,11.00
2022-11-24T17:12:18.187Z,14.20
2022-11-24T17:13:18.167Z,10.10
2022-11-24T17:14:18.199Z,16.90
2022-11-24T17:15:33.528Z,24.30
2022-11-24T17:16:18.262Z,13.80
2022-11-24T17:17:18.183Z,14.30
2022-11-24T17:18:24.454Z,13.70
2022-11-24T17:19:18.172Z,16.20
2022-11-24T17:20:18.149Z,14.70
2022-11-24T17:21:18.115Z,27.30
2022-11-24T17:22:18.083Z,35.20
2022-11-24T17:23:18.099Z,19.20
2022-11-24T17:24:18.108Z,10.30
2022-11-24T17:25:18.049Z,12.40
2022-11-24T17:26:18.014Z,15.10
2022-11-24T17:27:18.071Z,14.70
2022-11-24T17:28:18.035Z,11.60
2022-11-24T17:29:18.008Z,29.30
2022-11-24T17:30:18.020Z,24.60
2022-11-24T17:31:18.109Z,18.20
2022-11-24T17:32:18.080Z,14.20
2022-11-24T17:33:17.991Z,13.20
2022-11-24T17:34:17.956Z,22.70
2022-11-24T17:35:17.950Z,17.60
2022-11-24T17:36:17.973Z,18.60
2022-11-24T17:37:17.908Z,15.40
2022-11-24T17:38:17.924Z,15.40
2022-11-24T17:39:23.244Z,16.70
2022-11-24T17:40:28.283Z,19.40
2022-11-24T17:41:17.884Z,10.80
2022-11-24T17:42:17.900Z,11.10
2022-11-24T17:43:17.859Z,13.80
2022-11-24T17:44:17.830Z,17.70
2022-11-24T17:45:17.821Z,13.50
2022-11-24T17:46:17.901Z,17.10
2022-11-24T17:47:17.836Z,18.00
2022-11-24T17:48:17.808Z,12.10
2022-11-24T17:49:17.807Z,12.80
2022-11-24T17:50:22.414Z,16.10
2022-11-24T17:51:17.848Z,23.20
2022-11-24T17:52:17.776Z,23.70
2022-11-24T17:53:17.790Z,31.70
2022-11-24T17:54:45.349Z,28.40
2022-11-24T17:55:17.722Z,11.90
2022-11-24T17:56:17.733Z,12.00
2022-11-24T17:57:17.767Z,16.40
2022-11-24T17:58:17.737Z,26.90
2022-11-24T17:59:17.679Z,12.00
2022-11-24T18:00:17.681Z,24.90
2022-11-24T18:01:17.699Z,32.70
2022-11-24T18:02:17.749Z,16.00
2022-11-24T18:03:17.665Z,12.40
2022-11-24T18:04:17.669Z,14.40
2022-11-24T18:05:17.650Z,14.80
2022-11-24T18:06:17.619Z,16.90
2022-11-24T18:07:17.646Z,13.50
2022-11-24T18:08:17.614Z,18.90
2022-11-24T18:09:17.577Z,16.90
2022-11-24T18:10:17.639Z,19.80
2022-11-24T18:11:17.646Z,16.10
2022-11-24T18:12:17.565Z,16.30
2022-11-24T18:13:34.209Z,17.90
2022-11-24T18:14:17.577Z,24.40
2022-11-24T18:15:17.523Z,21.80